KLUX

Laurens County Airport

Laurens, South Carolina, USA
METAR KLUX 151235Z AUTO 03016G27KT 360V060 2SM -SN BKN007 OVC025 02/02 A3008 RMK AO2 VIS 1V5
Observed Flight Rules
Nov-15 @ 12:35 UTC (8 minutes ago) Instrument Flight Rules
Wind Visibility Clouds Conditions
30° at 16 knots
 Gusting to 27 knots
2 miles
  • Broken at 700' AGL
  • Overcast at 2,500' AGL
  • Light Snow
Temperatures Readings
Current 2°C / 36°F
Dewpoint 2°C / 36°F
Humidity 100%
Altimeter 30.08" Hg
Pressure 1019 hPa
Elevation 213
METAR KLUX 151235Z AUTO 03016G27KT 360V060 2SM -SN BKN007 OVC025 02/02 A3008 RMK AO2 VIS 1V5
Observed Flight Rules
Nov-15 @ 12:35 UTC
(8 minutes ago)
IFR
Wind Visibility
30° at 16 knots
 Gusting to 27 knots
2 miles
Clouds
  • Broken at 700' AGL
  • Overcast at 2,500' AGL
Conditions
  • Light Snow
Temperature Dewpoint
2°C / 36°F 2°C / 36°F
Humidity Altimeter Pressure
100% 30.08" Hg 1019 hPa